Time;durP1;ratioP1;P1;durP2;ratioP2;P2;SDS_P1;SDS_P2;PMS_P1;PMS_P2;Temp;Humidity;BMP_temperature;BMP_pressure;BME280_temperature;BME280_humidity;BME280_pressure;Samples;Min_cycle;Max_cycle;Signal;HPM_P1;HPM_P2
2023/10/01 00:00:19;;;;;;;5.25;2.85;;;;;;;27.04;50.42;100039.13;5106862;28;20039;-75
2023/10/01 00:02:51;;;;;;;4.57;2.50;;;;;;;27.03;50.34;100026.69;5110810;28;20030;-76
2023/10/01 00:05:17;;;;;;;5.72;2.97;;;;;;;27.00;49.97;100026.94;5095501;28;20032;-76
2023/10/01 00:07:43;;;;;;;6.10;3.20;;;;;;;27.02;50.51;100030.34;5095375;28;20030;-76
2023/10/01 00:10:10;;;;;;;6.10;3.00;;;;;;;27.02;50.12;100027.66;5095646;28;20032;-75
2023/10/01 00:12:47;;;;;;;6.50;3.53;;;;;;;27.01;50.41;100034.00;5095423;28;20034;-76
2023/10/01 00:15:18;;;;;;;7.95;3.38;;;;;;;27.01;50.20;100031.31;5094840;28;20032;-76
2023/10/01 00:17:46;;;;;;;5.35;3.30;;;;;;;27.00;50.33;100036.78;5095266;28;20027;-75
2023/10/01 00:20:21;;;;;;;5.55;3.45;;;;;;;27.02;50.21;100035.69;5095264;28;20043;-75
2023/10/01 00:22:51;;;;;;;6.10;3.22;;;;;;;27.00;50.01;100031.44;5095301;28;20021;-76
2023/10/01 00:25:18;;;;;;;6.10;3.58;;;;;;;26.98;50.32;100026.22;5095402;28;20055;-76
2023/10/01 00:27:44;;;;;;;5.90;3.28;;;;;;;26.99;49.96;100025.25;5095121;28;20492;-76
2023/10/01 00:30:10;;;;;;;5.15;3.10;;;;;;;26.99;50.30;100030.59;5094805;28;20032;-76
2023/10/01 00:32:36;;;;;;;6.47;3.90;;;;;;;26.98;50.02;100028.91;5095187;28;20020;-76
2023/10/01 00:35:03;;;;;;;5.63;3.08;;;;;;;26.98;49.95;100028.91;5094601;28;20016;-76
2023/10/01 00:37:28;;;;;;;6.05;3.30;;;;;;;26.98;50.26;100026.22;5095009;28;20020;-76
2023/10/01 00:39:54;;;;;;;6.03;3.40;;;;;;;26.99;49.95;100030.59;5094702;28;20077;-76
2023/10/01 00:42:24;;;;;;;7.40;3.45;;;;;;;27.00;50.36;100026.06;5094943;28;20099;-76
2023/10/01 00:44:49;;;;;;;5.80;3.08;;;;;;;26.96;50.38;100019.28;5094512;28;20099;-76
2023/10/01 00:47:16;;;;;;;7.60;3.58;;;;;;;26.97;50.20;100021.81;5094593;28;20112;-76
2023/10/01 00:49:48;;;;;;;5.32;3.03;;;;;;;26.98;50.09;100022.69;5094818;28;20491;-76
2023/10/01 00:52:14;;;;;;;5.68;3.40;;;;;;;26.98;50.16;100022.69;5094581;28;20032;-75
2023/10/01 00:54:40;;;;;;;5.20;2.75;;;;;;;26.97;50.21;100016.44;5074504;28;20033;-76
2023/10/01 00:57:05;;;;;;;6.40;3.42;;;;;;;26.95;50.46;100015.72;5073961;28;20028;-76
2023/10/01 00:59:33;;;;;;;9.93;3.42;;;;;;;26.96;50.55;100013.91;5093720;28;20114;-77
2023/10/01 01:01:59;;;;;;;5.93;3.47;;;;;;;26.97;50.30;100019.13;5094429;28;20043;-77
2023/10/01 01:04:28;;;;;;;5.75;3.05;;;;;;;26.92;50.55;100016.81;5093939;28;20044;-75
2023/10/01 01:06:58;;;;;;;5.50;3.03;;;;;;;26.92;50.19;100007.94;5094425;28;20027;-75
2023/10/01 01:09:28;;;;;;;5.70;3.35;;;;;;;26.92;50.30;100005.28;5093759;28;20395;-76
2023/10/01 01:11:53;;;;;;;5.63;3.10;;;;;;;26.92;50.31;100002.59;5093787;28;20021;-76
2023/10/01 01:14:21;;;;;;;7.28;3.40;;;;;;;26.90;50.14;100004.50;5094081;28;20084;-77
2023/10/01 01:16:48;;;;;;;5.43;3.13;;;;;;;26.93;50.31;99998.94;5094303;28;20039;-76
2023/10/01 01:19:15;;;;;;;5.30;3.03;;;;;;;26.91;50.07;100001.72;5094064;28;20102;-76
2023/10/01 01:21:42;;;;;;;5.70;3.08;;;;;;;26.91;50.38;100000.84;5094017;28;20066;-75
2023/10/01 01:24:09;;;;;;;7.60;3.47;;;;;;;26.89;50.25;99994.75;5094102;28;20487;-76
2023/10/01 01:26:37;;;;;;;6.15;3.13;;;;;;;26.87;50.04;99994.03;5093606;28;20039;-76
2023/10/01 01:29:17;;;;;;;4.82;2.97;;;;;;;26.89;50.19;99986.72;5093583;28;20036;-76
2023/10/01 01:31:45;;;;;;;5.55;2.83;;;;;;;26.89;50.17;99989.41;5094113;28;20027;-76
2023/10/01 01:34:12;;;;;;;6.68;2.83;;;;;;;26.89;49.90;99986.72;5093660;28;20020;-76
2023/10/01 01:36:39;;;;;;;6.50;2.95;;;;;;;26.89;50.28;99987.59;5093708;28;20099;-76
2023/10/01 01:39:27;;;;;;;5.88;3.08;;;;;;;26.89;49.84;99986.72;5093748;28;20020;-76
2023/10/01 01:41:54;;;;;;;5.13;2.40;;;;;;;26.84;50.35;99987.09;5093448;28;20067;-77
2023/10/01 01:44:20;;;;;;;5.75;2.60;;;;;;;26.81;50.24;99979.28;5092396;28;20042;-76
2023/10/01 01:46:49;;;;;;;5.45;2.90;;;;;;;26.78;50.40;99983.06;5093383;28;20429;-76
2023/10/01 01:49:18;;;;;;;5.28;2.90;;;;;;;26.75;50.40;99980.63;5093445;28;20084;-76
2023/10/01 01:51:59;;;;;;;4.93;2.90;;;;;;;26.72;50.37;99983.53;5093402;28;20025;-77
2023/10/01 01:54:38;;;;;;;4.35;2.50;;;;;;;26.74;50.47;99984.28;5093395;28;20028;-76
2023/10/01 01:57:07;;;;;;;4.63;2.60;;;;;;;26.73;50.40;99979.03;5092981;28;20024;-75
2023/10/01 01:59:33;;;;;;;6.18;2.90;;;;;;;26.73;50.41;99977.19;5093433;28;20065;-77
2023/10/01 02:01:59;;;;;;;6.50;2.95;;;;;;;26.73;50.58;99977.19;5104960;28;20020;-76
2023/10/01 02:04:25;;;;;;;4.53;2.67;;;;;;;26.72;50.31;99970.16;5113406;28;20086;-77
2023/10/01 02:06:52;;;;;;;4.88;2.67;;;;;;;26.70;50.55;99980.13;5113576;28;20036;-76
2023/10/01 02:09:24;;;;;;;5.35;2.70;;;;;;;26.70;50.45;99977.44;5101918;28;20032;-76
2023/10/01 02:11:50;;;;;;;4.63;2.40;;;;;;;26.69;50.08;99965.06;5093086;28;20036;-76
2023/10/01 02:14:31;;;;;;;5.13;2.70;;;;;;;26.69;50.57;99967.72;5093007;28;20027;-77
2023/10/01 02:17:15;;;;;;;5.90;2.95;;;;;;;26.71;50.43;99963.09;5092881;28;20023;-77
2023/10/01 02:19:46;;;;;;;4.35;2.45;;;;;;;26.73;50.47;99965.66;5092975;28;20487;-76
2023/10/01 02:22:12;;;;;;;5.28;2.85;;;;;;;26.74;50.29;99965.53;5092394;28;20028;-76
2023/10/01 02:27:11;;;;;;;4.70;2.70;;;;;;;26.75;50.24;99959.22;5092888;28;20056;-76
2023/10/01 02:29:45;;;;;;;7.05;2.97;;;;;;;26.74;50.05;99952.16;5092860;28;20024;-77
2023/10/01 02:32:15;;;;;;;6.13;2.88;;;;;;;26.75;49.78;99955.66;5092848;28;20451;-76
2023/10/01 02:34:43;;;;;;;5.88;2.70;;;;;;;26.72;49.73;99948.72;5092728;28;20020;-77
2023/10/01 02:37:09;;;;;;;5.63;2.90;;;;;;;26.73;50.04;99953.09;5092896;28;20077;-77
2023/10/01 02:39:37;;;;;;;5.72;2.85;;;;;;;26.71;49.74;99957.75;5090958;28;20020;-76
2023/10/01 02:44:34;;;;;;;5.93;3.03;;;;;;;26.70;49.68;99950.69;5092825;28;20047;-77
2023/10/01 02:47:04;;;;;;;7.80;3.53;;;;;;;26.68;50.01;99950.81;5092531;28;20028;-76
2023/10/01 02:49:32;;;;;;;6.95;2.88;;;;;;;26.68;50.08;99952.63;5092308;28;20070;-76
2023/10/01 02:51:59;;;;;;;5.57;3.03;;;;;;;26.65;50.05;99942.16;5092589;28;20020;-76
2023/10/01 02:54:28;;;;;;;6.10;2.83;;;;;;;26.69;49.56;99943.63;5091848;28;20107;-77
2023/10/01 02:57:12;;;;;;;5.30;2.78;;;;;;;26.66;49.85;99943.84;5092549;28;20474;-76
2023/10/01 02:59:38;;;;;;;5.28;2.65;;;;;;;26.65;49.77;99934.13;5092539;28;20428;-77
2023/10/01 03:02:08;;;;;;;5.55;2.72;;;;;;;26.65;49.48;99928.78;5092530;28;20016;-76
2023/10/01 03:04:33;;;;;;;5.78;3.10;;;;;;;26.65;50.01;99936.81;5092088;28;20040;-76
2023/10/01 03:07:04;;;;;;;5.38;2.92;;;;;;;26.63;49.68;99936.09;5092344;28;20016;-76
2023/10/01 03:09:33;;;;;;;6.32;3.00;;;;;;;26.61;49.51;99938.00;5092163;28;20028;-76
2023/10/01 03:14:59;;;;;;;5.75;2.90;;;;;;;26.62;49.46;99931.69;5092451;28;20510;-76
2023/10/01 03:17:27;;;;;;;5.80;3.33;;;;;;;26.59;49.69;99932.78;5092110;28;20024;-76
2023/10/01 03:19:53;;;;;;;5.28;3.03;;;;;;;26.57;49.89;99933.88;5092460;28;20085;-77
2023/10/01 03:22:23;;;;;;;6.15;2.95;;;;;;;26.58;49.53;99924.88;5091636;28;20032;-75
2023/10/01 03:24:50;;;;;;;5.50;3.20;;;;;;;26.56;49.83;99932.16;5092227;28;20024;-75
2023/10/01 03:27:20;;;;;;;5.85;3.20;;;;;;;26.56;49.75;99930.34;5091836;28;20025;-77
2023/10/01 03:29:49;;;;;;;6.60;2.72;;;;;;;26.53;49.82;99931.44;5092152;28;20028;-77
2023/10/01 03:32:27;;;;;;;4.78;2.65;;;;;;;26.55;49.45;99931.31;5093683;28;20028;-76
2023/10/01 03:34:53;;;;;;;4.95;3.00;;;;;;;26.53;49.43;99934.13;5096050;28;20487;-76
2023/10/01 03:37:27;;;;;;;6.00;2.95;;;;;;;26.52;49.47;99932.41;5095931;28;20059;-75
2023/10/01 03:40:10;;;;;;;5.68;2.60;;;;;;;26.54;49.54;99934.97;5095842;28;20024;-77
2023/10/01 03:42:37;;;;;;;5.72;3.15;;;;;;;26.54;49.83;99934.97;5095983;28;20028;-76
2023/10/01 03:47:59;;;;;;;6.18;2.90;;;;;;;26.49;49.49;99940.66;5095897;28;20039;-76
2023/10/01 03:50:26;;;;;;;5.20;2.90;;;;;;;26.52;49.48;99937.75;5095764;28;20028;-76
2023/10/01 03:52:54;;;;;;;5.43;2.88;;;;;;;26.51;49.73;99936.06;5094359;28;20027;-77
2023/10/01 03:55:30;;;;;;;5.18;3.15;;;;;;;26.47;49.63;99934.59;5095982;28;20031;-76
2023/10/01 03:58:08;;;;;;;6.03;2.83;;;;;;;26.50;49.56;99934.38;5095903;28;20028;-76
2023/10/01 04:03:06;;;;;;;4.97;2.85;;;;;;;26.50;49.91;99934.38;5095657;28;20056;-76
2023/10/01 04:05:33;;;;;;;4.93;2.53;;;;;;;26.47;49.73;99939.94;5095166;28;20028;-76
2023/10/01 04:08:11;;;;;;;5.68;2.47;;;;;;;26.45;49.56;99936.53;5095831;28;20024;-76
2023/10/01 04:10:38;;;;;;;4.20;2.38;;;;;;;26.46;49.45;99932.88;5095269;28;20546;-76
2023/10/01 04:13:20;;;;;;;6.18;2.65;;;;;;;26.47;49.43;99934.59;5095635;28;20077;-76
2023/10/01 04:15:49;;;;;;;4.53;2.50;;;;;;;26.46;49.83;99938.25;5095408;28;20410;-76
2023/10/01 04:20:49;;;;;;;6.50;3.20;;;;;;;26.46;49.57;99950.75;5094988;28;20439;-76
2023/10/01 04:23:31;;;;;;;4.90;2.90;;;;;;;26.43;49.42;99942.97;5095743;28;20030;-77
2023/10/01 04:26:04;;;;;;;4.55;2.58;;;;;;;26.44;49.50;99950.03;5095040;28;20020;-76
2023/10/01 04:28:37;;;;;;;5.80;2.83;;;;;;;26.44;49.70;99947.34;5095333;28;20024;-76
2023/10/01 04:31:09;;;;;;;5.72;2.80;;;;;;;26.42;49.62;99941.28;5094834;28;20480;-77
2023/10/01 04:33:42;;;;;;;4.63;2.38;;;;;;;26.40;49.71;99939.53;5096746;28;20889;-75
2023/10/01 04:36:10;;;;;;;4.22;2.40;;;;;;;26.38;49.38;99937.97;5094593;28;20031;-76
2023/10/01 04:38:37;;;;;;;5.18;2.42;;;;;;;26.38;49.64;99935.28;5094754;28;20012;-75
2023/10/01 04:41:07;;;;;;;4.25;2.38;;;;;;;26.39;49.68;99937.00;5094941;28;20430;-77
2023/10/01 04:43:41;;;;;;;5.63;2.17;;;;;;;26.35;49.66;99932.84;5094120;28;20112;-76
2023/10/01 04:46:08;;;;;;;4.88;2.58;;;;;;;26.34;49.60;99939.19;5094954;28;20047;-76
2023/10/01 04:48:36;;;;;;;4.75;2.20;;;;;;;26.32;49.36;99941.97;5094684;28;20028;-76
2023/10/01 04:51:07;;;;;;;5.47;2.45;;;;;;;26.32;49.49;99946.44;5094150;28;20102;-76
2023/10/01 04:53:34;;;;;;;4.78;2.42;;;;;;;26.31;49.58;99939.41;5094621;28;20024;-76
2023/10/01 04:56:06;;;;;;;4.03;1.92;;;;;;;26.29;49.30;99944.03;5094595;28;20106;-76
2023/10/01 04:58:38;;;;;;;5.45;2.22;;;;;;;26.27;49.41;99939.66;5094383;28;20059;-76
2023/10/01 05:01:10;;;;;;;4.07;1.83;;;;;;;26.26;49.63;99937.91;5094650;28;20070;-76
2023/10/01 05:03:39;;;;;;;4.38;1.90;;;;;;;26.27;49.60;99938.78;5093884;28;20062;-75
2023/10/01 05:06:12;;;;;;;5.10;2.25;;;;;;;26.25;49.39;99935.38;5094325;28;20032;-76
2023/10/01 05:08:38;;;;;;;5.05;2.15;;;;;;;26.26;49.48;99940.59;5092989;28;20058;-77
2023/10/01 05:11:16;;;;;;;4.95;2.35;;;;;;;26.24;49.27;99939.88;5094548;28;20048;-76
2023/10/01 05:13:47;;;;;;;4.70;1.75;;;;;;;26.22;49.33;99941.78;5094373;28;20099;-76
2023/10/01 05:16:14;;;;;;;5.15;2.05;;;;;;;26.21;49.41;99940.09;5094278;28;20036;-76
2023/10/01 05:18:43;;;;;;;4.03;2.03;;;;;;;26.18;49.22;99929.59;5093836;28;20107;-76
2023/10/01 05:21:18;;;;;;;5.00;2.28;;;;;;;26.18;49.31;99940.31;5094155;28;20060;-76
2023/10/01 05:23:45;;;;;;;4.97;2.73;;;;;;;26.17;48.86;99938.59;5093999;28;20028;-76
2023/10/01 05:26:11;;;;;;;5.60;2.78;;;;;;;26.16;48.92;99931.56;5094173;28;20028;-76
2023/10/01 05:28:41;;;;;;;4.82;2.40;;;;;;;26.16;48.83;99934.22;5092857;28;20081;-75
2023/10/01 05:31:09;;;;;;;5.13;2.30;;;;;;;26.13;48.99;99927.28;5093860;28;20048;-75
2023/10/01 05:33:35;;;;;;;4.88;2.60;;;;;;;26.11;48.62;99934.56;5092307;28;20028;-75
2023/10/01 05:36:04;;;;;;;4.57;2.33;;;;;;;26.08;48.60;99934.81;5093798;28;20438;-76
2023/10/01 05:38:34;;;;;;;6.25;3.05;;;;;;;26.08;48.94;99923.25;5093336;28;20024;-76
2023/10/01 05:41:03;;;;;;;5.18;2.80;;;;;;;26.07;48.39;99932.25;5093650;28;20533;-77
2023/10/01 05:43:37;;;;;;;4.63;2.80;;;;;;;26.04;48.42;99921.78;5093620;28;20024;-76
2023/10/01 05:46:09;;;;;;;4.85;3.10;;;;;;;26.05;48.37;99934.19;5093824;28;20111;-76
2023/10/01 05:48:43;;;;;;;5.05;2.80;;;;;;;26.04;49.04;99937.84;5093328;28;20377;-76
2023/10/01 05:51:14;;;;;;;6.25;3.05;;;;;;;25.92;49.00;99934.25;5093471;28;20036;-76
2023/10/01 05:53:41;;;;;;;5.45;2.92;;;;;;;25.86;49.52;99941.75;5093551;28;20028;-77
2023/10/01 05:56:07;;;;;;;5.32;3.17;;;;;;;25.82;49.32;99937.59;5092501;28;20089;-76
2023/10/01 05:58:34;;;;;;;5.97;3.22;;;;;;;25.79;49.45;99936.97;5093202;28;20020;-75
2023/10/01 06:01:06;;;;;;;5.35;3.15;;;;;;;25.78;49.78;99937.94;5093100;28;20399;-76
2023/10/01 06:03:32;;;;;;;5.05;2.90;;;;;;;25.73;49.57;99936.47;5092396;28;20043;-76
2023/10/01 06:05:58;;;;;;;5.18;2.92;;;;;;;25.72;49.86;99934.75;5072833;28;20104;-76
2023/10/01 06:08:32;;;;;;;5.78;3.05;;;;;;;25.71;49.83;99935.72;5072950;28;20051;-76
2023/10/01 06:10:59;;;;;;;5.90;2.72;;;;;;;25.69;49.98;99937.66;5087154;28;20038;-76
2023/10/01 06:13:28;;;;;;;5.07;3.10;;;;;;;25.70;50.00;99933.16;5091808;28;20020;-76
2023/10/01 06:15:58;;;;;;;5.53;2.83;;;;;;;25.69;49.83;99935.00;5092824;28;20069;-75
2023/10/01 06:18:27;;;;;;;5.38;3.00;;;;;;;25.68;49.75;99933.28;5092931;28;20439;-76
2023/10/01 06:20:53;;;;;;;4.82;2.80;;;;;;;25.67;49.80;99941.41;5093081;28;20035;-77
2023/10/01 06:23:21;;;;;;;4.90;2.80;;;;;;;25.68;50.06;99944.00;5092915;28;20023;-76
2023/10/01 06:25:53;;;;;;;5.88;2.85;;;;;;;25.67;49.68;99944.94;5092986;28;20024;-75
2023/10/01 06:28:23;;;;;;;6.32;3.67;;;;;;;25.66;49.99;99939.72;5092878;28;20028;-77
2023/10/01 06:30:49;;;;;;;5.90;2.90;;;;;;;25.65;49.77;99941.53;5092520;28;20110;-76
2023/10/01 06:33:29;;;;;;;5.35;2.80;;;;;;;25.64;50.17;99938.97;5092655;28;20556;-76
2023/10/01 06:38:39;;;;;;;5.20;3.05;;;;;;;25.63;49.86;99954.16;5092435;28;20059;-76
2023/10/01 06:41:09;;;;;;;5.65;2.83;;;;;;;25.64;50.06;99955.84;5092740;28;20480;-76
2023/10/01 06:43:44;;;;;;;4.47;2.70;;;;;;;25.65;50.10;99960.22;5093669;28;20023;-75
2023/10/01 06:46:11;;;;;;;5.53;2.65;;;;;;;25.65;49.90;99968.25;5097207;28;20024;-77
2023/10/01 06:48:39;;;;;;;4.10;2.85;;;;;;;25.64;49.82;99969.22;5092398;28;20089;-75
2023/10/01 06:51:06;;;;;;;3.53;2.10;;;;;;;25.65;50.15;99959.41;5092665;28;20047;-76
2023/10/01 06:53:45;;;;;;;4.60;2.50;;;;;;;25.66;50.30;99961.09;5092450;28;20460;-76
2023/10/01 06:56:14;;;;;;;5.40;2.67;;;;;;;25.64;49.87;99963.00;5092671;28;20024;-77
2023/10/01 06:58:41;;;;;;;4.38;2.45;;;;;;;25.65;50.17;99965.56;5092308;28;20053;-76
2023/10/01 07:01:33;;;;;;;4.38;2.50;;;;;;;25.65;50.10;99960.22;5092194;28;20028;-76
2023/10/01 07:03:51;;;;;;;4.20;2.70;;;;;;;25.67;50.26;99960.97;5092033;28;20514;-76
2023/10/01 07:06:17;;;;;;;4.70;2.70;;;;;;;25.65;49.98;99962.91;5091771;28;20020;-76
2023/10/01 07:08:43;;;;;;;4.05;2.28;;;;;;;25.65;50.00;99965.56;5092416;28;20023;-75
2023/10/01 07:11:11;;;;;;;5.65;2.60;;;;;;;25.64;50.34;99971.91;5091768;28;20438;-75
2023/10/01 07:13:38;;;;;;;4.35;2.30;;;;;;;25.66;50.43;99971.78;5092021;28;20028;-75
2023/10/01 07:16:04;;;;;;;4.55;2.15;;;;;;;25.68;50.08;99973.38;5091975;28;20054;-75
2023/10/01 07:18:30;;;;;;;5.80;3.22;;;;;;;25.68;50.32;99970.72;5091739;28;20047;-74
2023/10/01 07:21:00;;;;;;;4.25;2.28;;;;;;;25.70;50.39;99979.47;5091282;28;20097;-74
2023/10/01 07:23:26;;;;;;;5.10;2.40;;;;;;;25.74;50.05;99980.94;5091979;28;20514;-75
2023/10/01 07:26:03;;;;;;;3.88;2.35;;;;;;;25.73;50.32;99979.22;5092137;28;20028;-75
2023/10/01 07:28:30;;;;;;;4.75;2.10;;;;;;;25.73;50.58;99973.03;5089878;28;20040;-75
2023/10/01 07:31:01;;;;;;;4.43;2.30;;;;;;;25.74;50.55;99977.41;5090981;28;20673;-74
2023/10/01 07:33:28;;;;;;;3.83;2.13;;;;;;;25.73;50.53;99979.22;5091865;28;20028;-74
2023/10/01 07:36:00;;;;;;;5.80;2.65;;;;;;;25.76;50.66;99982.66;5091559;28;20107;-75
2023/10/01 07:38:31;;;;;;;5.95;2.30;;;;;;;25.78;50.27;99991.41;5090239;28;20037;-74
2023/10/01 07:41:07;;;;;;;4.35;2.30;;;;;;;25.74;50.19;99986.31;5079991;28;20115;-74
2023/10/01 07:43:33;;;;;;;4.97;2.38;;;;;;;25.74;50.45;99994.31;5090915;28;20077;-74
2023/10/01 07:46:01;;;;;;;5.28;2.50;;;;;;;25.76;50.09;99990.66;5091810;28;20446;-75
2023/10/01 07:48:28;;;;;;;8.88;2.80;;;;;;;25.73;50.25;99984.56;5084080;28;20032;-74
2023/10/01 07:50:55;;;;;;;4.72;2.10;;;;;;;25.73;50.12;99989.91;5086381;28;20020;-75
2023/10/01 07:53:32;;;;;;;4.85;2.40;;;;;;;25.74;50.18;99996.13;5087225;28;20020;-74
2023/10/01 07:56:07;;;;;;;5.82;2.42;;;;;;;25.73;50.30;99994.41;5088199;28;20078;-75
2023/10/01 07:58:46;;;;;;;4.53;2.38;;;;;;;25.73;50.23;99984.56;5082488;28;20048;-75
2023/10/01 08:03:55;;;;;;;5.57;2.50;;;;;;;25.76;50.19;99988.00;5088271;28;20043;-74
2023/10/01 08:06:31;;;;;;;4.63;2.30;;;;;;;25.74;50.05;99996.13;5080857;28;20644;-74
2023/10/01 08:08:59;;;;;;;5.70;2.80;;;;;;;25.77;50.33;100000.41;5087491;28;20029;-74
2023/10/01 08:11:58;;;;;;;7.80;2.63;;;;;;;25.76;50.28;99999.53;5095003;28;20387;-75
2023/10/01 08:14:26;;;;;;;4.63;2.50;;;;;;;25.78;50.31;99996.75;5087227;28;20142;-73
2023/10/01 08:16:57;;;;;;;4.28;2.17;;;;;;;25.82;50.19;100000.91;5100585;28;20016;-75
2023/10/01 08:19:23;;;;;;;6.60;2.28;;;;;;;25.81;50.28;100000.03;5105745;28;20171;-75
2023/10/01 08:21:50;;;;;;;5.15;2.55;;;;;;;25.81;50.16;99997.38;5090718;28;20110;-75
2023/10/01 08:24:19;;;;;;;4.72;2.15;;;;;;;25.84;50.11;100002.50;5089217;28;20062;-75
2023/10/01 08:26:57;;;;;;;4.13;2.15;;;;;;;25.85;49.79;100003.34;5084991;28;20024;-74
2023/10/01 08:29:29;;;;;;;4.38;2.20;;;;;;;25.84;49.76;100007.84;5088392;28;20023;-74
2023/10/01 08:34:22;;;;;;;5.30;2.60;;;;;;;25.86;49.86;100000.56;5088431;28;20016;-73
2023/10/01 08:36:55;;;;;;;4.00;2.10;;;;;;;25.90;50.06;100001.19;5085608;28;20472;-74
2023/10/01 08:42:12;;;;;;;6.72;2.03;;;;;;;25.93;49.52;99990.28;5085379;28;20027;-74
2023/10/01 08:44:51;;;;;;;3.33;1.65;;;;;;;25.96;49.68;99995.38;5090334;28;20045;-74
2023/10/01 08:47:21;;;;;;;4.07;2.05;;;;;;;25.98;49.63;99995.28;5090727;28;20487;-74
2023/10/01 08:49:51;;;;;;;4.47;2.10;;;;;;;25.99;49.60;99989.81;5093947;28;20656;-74
2023/10/01 08:52:30;;;;;;;4.68;2.47;;;;;;;26.02;49.96;99994.09;5090240;28;20020;-74
2023/10/01 08:54:58;;;;;;;4.25;2.33;;;;;;;26.04;50.11;99994.00;5090812;28;20036;-74
2023/10/01 08:57:45;;;;;;;4.28;2.15;;;;;;;26.04;49.76;99996.66;5089831;28;20556;-73
2023/10/01 09:00:21;;;;;;;4.50;2.13;;;;;;;26.05;49.86;99993.84;5096671;28;20024;-74
2023/10/01 09:02:50;;;;;;;4.18;2.20;;;;;;;26.09;49.99;99999.81;5088038;28;20058;-74
2023/10/01 09:05:23;;;;;;;6.07;2.30;;;;;;;26.08;49.86;99992.78;5081401;28;20036;-74
2023/10/01 09:07:50;;;;;;;5.55;2.35;;;;;;;26.10;49.83;99997.03;5090614;28;20031;-74
2023/10/01 09:10:19;;;;;;;5.25;2.58;;;;;;;26.11;49.98;100000.59;5105056;28;20030;-75
2023/10/01 09:12:48;;;;;;;4.72;2.13;;;;;;;26.12;49.94;100005.81;5093043;28;20398;-75
2023/10/01 09:15:27;;;;;;;5.03;2.40;;;;;;;26.12;50.08;100002.28;5084725;28;20070;-75
2023/10/01 09:17:56;;;;;;;4.25;2.00;;;;;;;26.15;49.71;100004.75;5088591;28;20020;-72
2023/10/01 09:21:06;;;;;;;4.85;2.10;;;;;;;26.14;49.69;99997.66;5081447;28;20046;-72
2023/10/01 09:24:31;;;;;;;4.50;2.17;;;;;;;26.15;49.98;99999.41;5030324;28;20040;-72
2023/10/01 09:26:56;;;;;;;5.20;2.20;;;;;;;26.15;49.98;99999.41;5040696;28;20417;-72
2023/10/01 09:29:23;;;;;;;5.15;2.25;;;;;;;26.16;49.88;100006.44;5039657;28;20037;-71
2023/10/01 09:31:59;;;;;;;4.82;2.10;;;;;;;26.18;49.79;99999.16;5030747;28;20104;-72
2023/10/01 09:34:31;;;;;;;4.72;2.20;;;;;;;26.17;49.86;99992.09;5066190;28;20037;-72
2023/10/01 09:37:17;;;;;;;5.15;2.10;;;;;;;26.17;49.91;100002.78;5046969;28;20033;-72
2023/10/01 09:39:43;;;;;;;4.47;2.47;;;;;;;26.18;49.82;100000.97;5044500;28;20543;-72
2023/10/01 09:42:28;;;;;;;4.20;2.00;;;;;;;26.19;49.99;100000.84;5046677;28;20029;-72
2023/10/01 09:44:55;;;;;;;4.43;2.05;;;;;;;26.21;50.10;99998.06;5046238;28;20025;-71
2023/10/01 09:47:25;;;;;;;3.08;1.60;;;;;;;26.19;49.76;99989.31;5047536;28;20032;-72
2023/10/01 09:49:52;;;;;;;4.68;1.95;;;;;;;26.19;50.03;99998.19;5050118;28;20551;-70
2023/10/01 09:52:27;;;;;;;3.47;1.70;;;;;;;26.20;49.99;99991.84;5048117;28;20040;-72
2023/10/01 09:55:02;;;;;;;4.13;1.67;;;;;;;26.18;49.80;99991.13;5049126;28;20420;-72
2023/10/01 09:57:34;;;;;;;4.00;1.75;;;;;;;26.19;49.85;99990.16;5047349;28;20163;-72
2023/10/01 10:00:20;;;;;;;3.50;1.60;;;;;;;26.19;50.05;99990.16;5089716;28;20181;-72
2023/10/01 10:02:52;;;;;;;5.35;2.20;;;;;;;26.20;49.75;99980.31;5087569;28;20115;-72
2023/10/01 10:05:25;;;;;;;3.75;1.63;;;;;;;26.21;49.98;99990.91;5092240;28;20024;-70
2023/10/01 10:07:56;;;;;;;4.05;1.98;;;;;;;26.24;49.76;99977.31;5091984;28;20031;-73
2023/10/01 10:10:26;;;;;;;3.05;1.48;;;;;;;26.24;49.78;99982.66;5089557;28;20055;-71
2023/10/01 10:12:56;;;;;;;2.60;1.52;;;;;;;26.24;50.07;99979.16;5091774;28;20020;-71
2023/10/01 10:16:00;;;;;;;2.72;1.45;;;;;;;26.24;49.74;99977.31;5085468;28;20024;-71
2023/10/01 10:18:32;;;;;;;2.72;1.52;;;;;;;26.25;49.93;99971.00;5091299;28;20580;-71
2023/10/01 10:21:05;;;;;;;3.47;1.42;;;;;;;26.26;49.84;99969.19;5091736;28;20028;-72
2023/10/01 10:23:52;;;;;;;2.95;1.70;;;;;;;26.24;50.21;99966.63;5091864;28;20027;-72
2023/10/01 10:26:56;;;;;;;3.03;1.67;;;;;;;26.27;49.81;99965.53;5089578;28;20024;-71
2023/10/01 10:29:22;;;;;;;3.00;1.52;;;;;;;26.27;50.19;99958.38;5092135;28;20027;-72
2023/10/01 10:32:09;;;;;;;4.70;1.85;;;;;;;26.30;50.11;99967.13;5091895;28;20066;-77
2023/10/01 10:34:36;;;;;;;2.78;1.60;;;;;;;26.30;50.09;99956.44;5092264;28;20024;-77
2023/10/01 10:37:06;;;;;;;2.97;1.60;;;;;;;26.31;50.29;99958.13;5092039;28;20031;-77
2023/10/01 10:39:48;;;;;;;3.33;1.60;;;;;;;26.31;50.09;99955.44;5092344;28;20031;-79
2023/10/01 10:42:30;;;;;;;4.18;1.80;;;;;;;26.32;50.32;99958.03;5091733;28;20089;-77
2023/10/01 10:45:19;;;;;;;2.95;1.48;;;;;;;26.34;50.04;99955.25;5088892;28;20027;-77
2023/10/01 10:48:03;;;;;;;4.20;1.65;;;;;;;26.36;49.97;99958.63;5092004;28;20080;-77
2023/10/01 10:50:51;;;;;;;5.13;1.92;;;;;;;26.37;49.96;99950.50;5090447;28;20649;-77
2023/10/01 10:53:21;;;;;;;3.90;1.60;;;;;;;26.36;50.00;99947.94;5091626;28;20081;-78
2023/10/01 10:56:00;;;;;;;3.22;1.67;;;;;;;26.38;49.86;99946.84;5091572;28;20085;-77
2023/10/01 10:58:28;;;;;;;4.88;2.13;;;;;;;26.40;49.87;99944.91;5091591;28;20020;-78
2023/10/01 11:01:15;;;;;;;3.03;1.55;;;;;;;26.43;50.27;99940.31;5091589;28;20028;-76
2023/10/01 11:03:41;;;;;;;3.92;1.80;;;;;;;26.44;50.16;99934.81;5091028;28;20035;-78
2023/10/01 11:06:21;;;;;;;4.32;2.08;;;;;;;26.45;50.15;99933.88;5091067;28;20404;-76
2023/10/01 11:08:52;;;;;;;4.28;1.90;;;;;;;26.47;50.09;99934.59;5090282;28;20077;-77
2023/10/01 11:11:39;;;;;;;4.20;1.80;;;;;;;26.50;50.19;99928.16;5089338;28;20118;-75
2023/10/01 11:14:11;;;;;;;3.50;1.52;;;;;;;26.51;49.83;99930.72;5091649;28;20054;-77
2023/10/01 11:16:40;;;;;;;3.40;1.60;;;;;;;26.54;49.85;99925.09;5091711;28;20089;-76
2023/10/01 11:19:13;;;;;;;4.03;1.67;;;;;;;26.56;49.78;99919.63;5091895;28;20020;-76
2023/10/01 11:21:55;;;;;;;3.75;1.70;;;;;;;26.58;50.11;99915.00;5091227;28;20052;-76
2023/10/01 11:24:37;;;;;;;3.45;1.60;;;;;;;26.60;50.13;99912.22;5090021;28;20484;-76
2023/10/01 11:27:17;;;;;;;3.58;1.58;;;;;;;26.62;50.02;99910.28;5071926;28;20024;-77
2023/10/01 11:29:43;;;;;;;3.47;1.50;;;;;;;26.62;49.74;99910.28;5076244;28;20036;-76
2023/10/01 11:32:16;;;;;;;3.03;1.63;;;;;;;26.64;49.77;99897.63;5090072;28;20028;-77
2023/10/01 11:34:55;;;;;;;2.97;1.48;;;;;;;26.67;49.82;99897.38;5089082;28;20024;-76
2023/10/01 11:37:27;;;;;;;4.55;1.98;;;;;;;26.68;49.96;99909.78;5088872;28;20622;-77
2023/10/01 11:39:54;;;;;;;4.05;1.90;;;;;;;26.70;50.00;99897.16;5088231;28;20024;-76
2023/10/01 11:42:35;;;;;;;4.65;1.88;;;;;;;26.71;49.98;99893.50;5089751;28;20020;-76
2023/10/01 11:45:31;;;;;;;3.50;1.70;;;;;;;26.73;49.96;99891.53;5091126;28;20529;-75
2023/10/01 11:48:05;;;;;;;4.90;1.75;;;;;;;26.76;49.91;99890.44;5091171;28;20539;-75
2023/10/01 11:50:49;;;;;;;3.60;1.98;;;;;;;26.77;49.56;99887.66;5091130;28;20408;-76
2023/10/01 11:53:16;;;;;;;4.07;1.83;;;;;;;26.79;49.73;99885.69;5090121;28;20102;-77
2023/10/01 11:55:41;;;;;;;3.08;1.63;;;;;;;26.82;49.87;99881.94;5093644;28;20024;-76
2023/10/01 11:58:07;;;;;;;3.78;1.85;;;;;;;26.83;49.81;99875.63;5093779;28;20023;-77
2023/10/01 12:00:52;;;;;;;4.80;2.15;;;;;;;26.84;49.41;99881.81;5091213;28;20182;-77
2023/10/01 12:03:18;;;;;;;3.83;1.77;;;;;;;26.86;49.40;99872.69;5090190;28;20040;-77
2023/10/01 12:05:46;;;;;;;3.92;1.70;;;;;;;26.88;49.66;99867.22;5090467;28;20059;-76
2023/10/01 12:08:18;;;;;;;4.03;1.55;;;;;;;26.89;49.51;99868.91;5087966;28;20016;-77
2023/10/01 12:10:44;;;;;;;3.88;2.00;;;;;;;26.90;49.44;99873.28;5085634;28;20051;-77
2023/10/01 12:13:11;;;;;;;4.10;1.63;;;;;;;26.93;49.74;99870.41;5094845;28;20066;-77
2023/10/01 12:15:52;;;;;;;3.75;1.88;;;;;;;26.94;49.67;99861.41;5095142;28;20073;-77
2023/10/01 12:18:17;;;;;;;3.60;1.70;;;;;;;26.96;49.68;99863.97;5094853;28;20020;-77